createdAt,value
2023-03-11T00:00:33.881Z,97224.69
2023-03-11T00:03:02.662Z,97225.16
2023-03-11T00:05:31.897Z,97225.94
2023-03-11T00:07:58.723Z,97220.47
2023-03-11T00:23:12.704Z,97247.38
2023-03-11T00:25:39.592Z,97263.56
2023-03-11T00:28:11.220Z,97260.19
2023-03-11T00:30:39.023Z,97269.78
2023-03-11T00:33:05.974Z,97274.81
2023-03-11T00:35:33.907Z,97254.59
2023-03-11T00:38:04.129Z,97276.47
2023-03-11T00:40:33.286Z,97268.44
2023-03-11T00:43:00.136Z,97268.81
2023-03-11T00:45:28.059Z,97268.16
2023-03-11T00:47:55.617Z,97281.16
2023-03-11T00:50:25.317Z,97285.69
2023-03-11T00:52:52.724Z,97288.41
2023-03-11T00:58:05.211Z,97291.34
2023-03-11T01:00:33.997Z,97301.53
2023-03-11T01:03:00.725Z,97285.09
2023-03-11T01:05:30.971Z,97292.41
2023-03-11T01:07:58.492Z,97293.72
2023-03-11T01:10:25.649Z,97303.00
2023-03-11T01:12:52.426Z,97301.00
2023-03-11T01:15:32.898Z,97278.28
2023-03-11T01:17:59.647Z,97280.38
2023-03-11T01:22:58.236Z,97272.50
2023-03-11T01:25:25.147Z,97265.16
2023-03-11T01:27:51.892Z,97282.50
2023-03-11T01:30:21.532Z,97279.50
2023-03-11T01:32:48.316Z,97284.81
2023-03-11T01:35:17.659Z,97284.03
2023-03-11T01:37:44.590Z,97290.22
2023-03-11T01:40:31.027Z,97280.53
2023-03-11T01:42:59.482Z,97307.09
2023-03-11T01:45:47.684Z,97301.78
2023-03-11T01:48:14.254Z,97313.34
2023-03-11T01:50:46.643Z,97318.13
2023-03-11T01:53:14.866Z,97303.16
2023-03-11T01:55:41.578Z,97311.78
2023-03-11T01:58:11.964Z,97303.94
2023-03-11T02:00:38.766Z,97296.28
2023-03-11T02:03:26.277Z,97292.94
2023-03-11T02:05:56.111Z,97310.25
2023-03-11T02:08:23.433Z,97318.13
2023-03-11T02:10:53.177Z,97311.66
2023-03-11T02:13:20.332Z,97309.66
2023-03-11T02:15:47.010Z,97315.19
2023-03-11T02:18:15.098Z,97325.44
2023-03-11T02:21:08.148Z,97331.06
2023-03-11T02:23:49.240Z,97334.97
2023-03-11T02:26:22.732Z,97332.94
2023-03-11T02:28:51.031Z,97335.66
2023-03-11T02:31:17.640Z,97344.19
2023-03-11T02:33:47.013Z,97331.63
2023-03-11T02:36:40.170Z,97318.03
2023-03-11T02:39:07.778Z,97330.84
2023-03-11T02:41:38.605Z,97327.28
2023-03-11T02:44:08.517Z,97321.84
2023-03-11T02:46:36.976Z,97318.88
2023-03-11T02:49:04.649Z,97330.53
2023-03-11T02:51:31.200Z,97326.28
2023-03-11T02:54:01.381Z,97336.16
2023-03-11T02:56:28.758Z,97335.75
2023-03-11T02:58:55.507Z,97352.47
2023-03-11T03:01:22.950Z,97340.22
2023-03-11T03:03:49.592Z,97340.91
2023-03-11T03:06:16.297Z,97347.41
2023-03-11T03:08:42.937Z,97344.50
2023-03-11T03:11:09.530Z,97348.75
2023-03-11T03:13:36.458Z,97355.28
2023-03-11T03:16:03.233Z,97356.28
2023-03-11T03:18:29.903Z,97352.13
2023-03-11T03:20:56.520Z,97371.34
2023-03-11T03:39:12.925Z,97366.50
2023-03-11T03:41:45.754Z,97389.72
2023-03-11T03:44:18.445Z,97383.63
2023-03-11T03:46:51.118Z,97392.75
2023-03-11T03:49:23.786Z,97397.78
2023-03-11T03:51:56.463Z,97395.88
2023-03-11T03:54:29.081Z,97399.38
2023-03-11T03:57:02.308Z,97406.88
2023-03-11T03:59:35.042Z,97407.44
2023-03-11T04:02:08.011Z,97407.78
2023-03-11T04:04:40.779Z,97408.03
2023-03-11T04:07:13.561Z,97409.69
2023-03-11T04:09:46.230Z,97412.31
2023-03-11T04:12:19.021Z,97416.31
2023-03-11T04:14:51.689Z,97415.31
2023-03-11T04:17:24.362Z,97422.31
2023-03-11T04:19:56.985Z,97436.09
2023-03-11T04:22:29.663Z,97429.13
2023-03-11T04:25:02.758Z,97436.97
2023-03-11T04:27:35.425Z,97427.91
2023-03-11T04:30:10.222Z,97430.69
2023-03-11T04:35:21.354Z,97416.81
2023-03-11T04:37:54.071Z,97422.16
2023-03-11T04:40:27.022Z,97424.66
2023-03-11T04:42:59.726Z,97423.97
2023-03-11T04:45:32.425Z,97427.75
2023-03-11T04:48:05.038Z,97424.97
2023-03-11T04:50:37.686Z,97422.94
2023-03-11T04:53:10.300Z,97422.59
2023-03-11T04:55:42.899Z,97420.88
2023-03-11T04:58:15.526Z,97428.69
2023-03-11T05:00:48.347Z,97423.56
2023-03-11T05:03:21.057Z,97428.16
2023-03-11T05:05:56.784Z,97425.47
2023-03-11T05:08:29.486Z,97436.34
2023-03-11T05:11:02.136Z,97427.25
2023-03-11T05:13:35.043Z,97437.91
2023-03-11T05:16:07.924Z,97434.91
2023-03-11T05:18:40.791Z,97439.84
2023-03-11T05:21:13.492Z,97442.16
2023-03-11T05:23:46.115Z,97453.63
2023-03-11T05:26:18.810Z,97451.53
2023-03-11T05:28:51.428Z,97454.56
2023-03-11T05:31:24.114Z,97451.25
2023-03-11T05:33:56.815Z,97447.38
2023-03-11T05:36:29.462Z,97448.66
2023-03-11T05:39:02.124Z,97451.50
2023-03-11T05:41:34.865Z,97449.34
2023-03-11T05:44:07.654Z,97445.09
2023-03-11T05:46:40.397Z,97458.09
2023-03-11T05:49:13.080Z,97443.84
2023-03-11T05:54:18.351Z,97458.03
2023-03-11T05:56:45.699Z,97464.06
2023-03-11T05:59:16.379Z,97467.72
2023-03-11T06:01:44.093Z,97475.22
2023-03-11T06:04:11.649Z,97476.81
2023-03-11T06:06:41.189Z,97474.56
2023-03-11T06:09:12.326Z,97478.19
2023-03-11T06:11:39.143Z,97468.06
2023-03-11T06:14:05.840Z,97480.28
2023-03-11T06:16:32.433Z,97490.19
2023-03-11T06:19:00.965Z,97486.25
2023-03-11T06:24:06.507Z,97492.72
2023-03-11T06:26:33.053Z,97498.66
2023-03-11T06:28:59.646Z,97496.28
2023-03-11T06:31:28.657Z,97493.00
2023-03-11T06:33:56.130Z,97491.28
2023-03-11T06:36:23.276Z,97493.00
2023-03-11T06:38:52.456Z,97493.94
2023-03-11T06:41:19.054Z,97500.97
2023-03-11T06:43:45.666Z,97502.38
2023-03-11T06:46:20.955Z,97512.03
2023-03-11T06:48:47.841Z,97520.94
2023-03-11T06:51:14.632Z,97524.50
2023-03-11T06:53:41.467Z,97534.22
2023-03-11T06:56:10.766Z,97527.66
2023-03-11T06:58:38.895Z,97536.34
2023-03-11T07:01:06.878Z,97541.34
2023-03-11T07:03:33.958Z,97547.88
2023-03-11T07:06:00.872Z,97550.31
2023-03-11T07:08:28.067Z,97556.53
2023-03-11T07:11:09.434Z,97566.28
2023-03-11T07:13:37.013Z,97567.13
2023-03-11T07:16:07.651Z,97562.94
2023-03-11T07:18:35.562Z,97559.06
2023-03-11T07:23:38.813Z,97553.41
2023-03-11T07:26:07.960Z,97564.22
2023-03-11T07:28:34.575Z,97566.31
2023-03-11T07:31:07.609Z,97568.00
2023-03-11T07:33:34.385Z,97565.09
2023-03-11T07:36:05.690Z,97574.28
2023-03-11T07:38:32.377Z,97569.34
2023-03-11T07:41:00.034Z,97572.06
2023-03-11T07:43:26.681Z,97573.06
2023-03-11T07:45:55.096Z,97577.63
2023-03-11T07:48:22.215Z,97581.50
2023-03-11T07:50:48.766Z,97584.38
2023-03-11T07:53:15.349Z,97580.81
2023-03-11T07:55:41.926Z,97585.09
2023-03-11T07:58:08.471Z,97598.19
2023-03-11T08:00:35.067Z,97594.78
2023-03-11T08:03:01.634Z,97609.72
2023-03-11T08:05:28.160Z,97610.38
2023-03-11T08:07:54.758Z,97613.25
2023-03-11T08:10:21.352Z,97601.84
2023-03-11T08:12:47.908Z,97598.41
2023-03-11T08:15:14.418Z,97608.94
2023-03-11T08:17:40.964Z,97608.88
2023-03-11T08:20:09.024Z,97605.84
2023-03-11T08:22:36.906Z,97627.19
2023-03-11T08:25:03.743Z,97626.22
2023-03-11T08:27:30.449Z,97623.94
2023-03-11T08:29:58.287Z,97622.81
2023-03-11T08:32:25.160Z,97626.66
2023-03-11T08:34:51.852Z,97636.66
2023-03-11T08:37:18.465Z,97633.09
2023-03-11T08:39:45.041Z,97641.13
2023-03-11T08:42:11.726Z,97642.28
2023-03-11T08:44:38.864Z,97638.34
2023-03-11T08:47:05.516Z,97636.25
2023-03-11T08:49:32.083Z,97636.59
2023-03-11T08:51:58.849Z,97639.25
2023-03-11T08:54:25.466Z,97645.69
2023-03-11T08:56:52.070Z,97639.00
2023-03-11T08:59:18.613Z,97649.91
2023-03-11T09:01:45.475Z,97661.22
2023-03-11T09:04:12.241Z,97666.63
2023-03-11T09:06:45.013Z,97645.13
2023-03-11T09:09:12.770Z,97645.97
2023-03-11T09:11:39.448Z,97648.50
2023-03-11T09:14:06.057Z,97650.44
2023-03-11T09:16:32.725Z,97650.63
2023-03-11T09:19:03.641Z,97649.28
2023-03-11T09:21:30.217Z,97661.22
2023-03-11T09:23:56.829Z,97671.03
2023-03-11T09:28:54.750Z,97663.50
2023-03-11T09:31:21.556Z,97659.06
2023-03-11T09:33:50.092Z,97663.41
2023-03-11T09:36:18.904Z,97655.72
2023-03-11T09:38:45.688Z,97673.59
2023-03-11T09:41:18.453Z,97664.16
2023-03-11T09:44:06.855Z,97656.91
2023-03-11T09:46:59.377Z,97662.13
2023-03-11T09:49:44.717Z,97661.91
2023-03-11T09:52:16.682Z,97667.47
2023-03-11T09:54:47.562Z,97674.22
2023-03-11T09:57:21.964Z,97673.06
2023-03-11T10:02:26.856Z,97661.41
2023-03-11T10:05:17.181Z,97656.03
2023-03-11T10:07:49.964Z,97666.19
2023-03-11T10:10:18.278Z,97661.63
2023-03-11T10:16:08.264Z,97668.88
2023-03-11T10:19:18.888Z,97664.78
2023-03-11T10:25:12.515Z,97668.28
2023-03-11T10:28:06.728Z,97659.34
2023-03-11T10:33:18.122Z,97666.69
2023-03-11T10:35:50.113Z,97662.13
2023-03-11T10:38:32.376Z,97664.47
2023-03-11T10:41:12.286Z,97670.88
2023-03-11T10:43:43.739Z,97668.16
2023-03-11T10:46:24.228Z,97656.44
2023-03-11T10:51:28.078Z,97659.94
2023-03-11T10:53:57.233Z,97664.53
2023-03-11T10:56:29.765Z,97662.78
2023-03-11T10:58:56.541Z,97661.63
2023-03-11T11:01:24.335Z,97658.06
2023-03-11T11:03:55.975Z,97655.91
2023-03-11T11:06:27.200Z,97663.09
2023-03-11T11:09:07.659Z,97658.44
2023-03-11T11:11:36.294Z,97670.09
2023-03-11T11:14:02.992Z,97662.47
2023-03-11T11:16:30.112Z,97667.72
2023-03-11T11:18:59.304Z,97666.84
2023-03-11T11:21:38.436Z,97668.44
2023-03-11T11:24:13.978Z,97664.28
2023-03-11T11:26:40.655Z,97669.72
2023-03-11T11:29:08.971Z,97670.97
2023-03-11T11:31:41.145Z,97677.44
2023-03-11T11:34:23.201Z,97673.56
2023-03-11T11:39:26.598Z,97678.16
2023-03-11T11:41:54.219Z,97674.47
2023-03-11T11:44:23.163Z,97669.91
2023-03-11T11:46:57.535Z,97662.16
2023-03-11T11:52:18.425Z,97665.41
2023-03-11T11:54:57.757Z,97661.78
2023-03-11T11:57:25.157Z,97660.84
2023-03-11T11:59:52.034Z,97664.78
2023-03-11T12:02:35.793Z,97662.72
2023-03-11T12:05:16.567Z,97659.69
2023-03-11T12:08:26.180Z,97650.34
2023-03-11T12:10:58.719Z,97652.72
2023-03-11T12:14:00.670Z,97643.69
2023-03-11T12:16:38.943Z,97639.53
2023-03-11T12:19:13.863Z,97638.41
2023-03-11T12:22:04.808Z,97635.56
2023-03-11T12:24:58.995Z,97640.44
2023-03-11T12:27:31.430Z,97628.91
2023-03-11T12:30:02.019Z,97629.97
2023-03-11T12:32:39.065Z,97625.91
2023-03-11T12:35:31.966Z,97619.91
2023-03-11T12:38:25.005Z,97618.78
2023-03-11T12:41:04.118Z,97618.34
2023-03-11T12:43:33.817Z,97615.53
2023-03-11T12:46:08.801Z,97620.31
2023-03-11T12:49:08.351Z,97618.25
2023-03-11T12:51:34.815Z,97619.66
2023-03-11T12:54:43.693Z,97625.88
2023-03-11T12:57:16.083Z,97630.47
2023-03-11T13:00:00.752Z,97629.03
2023-03-11T13:02:48.840Z,97631.31
2023-03-11T13:05:27.047Z,97618.97
2023-03-11T13:08:21.614Z,97628.75
2023-03-11T13:10:53.162Z,97621.13
2023-03-11T13:13:25.355Z,97619.31
2023-03-11T13:15:53.071Z,97621.19
2023-03-11T13:18:25.310Z,97627.03
2023-03-11T13:20:56.160Z,97614.97
2023-03-11T13:26:15.589Z,97616.94
2023-03-11T13:29:09.613Z,97610.81
2023-03-11T13:31:45.231Z,97613.81
2023-03-11T13:34:40.641Z,97615.22
2023-03-11T13:37:09.698Z,97624.13
2023-03-11T13:39:56.549Z,97624.94
2023-03-11T13:42:42.468Z,97626.28
2023-03-11T13:45:35.829Z,97615.06
2023-03-11T13:50:51.211Z,97614.91
2023-03-11T13:53:32.261Z,97619.19
2023-03-11T13:55:58.930Z,97610.59
2023-03-11T13:58:27.693Z,97617.59
2023-03-11T14:01:02.507Z,97626.84
2023-03-11T14:03:35.399Z,97628.41
2023-03-11T14:06:05.169Z,97627.69
2023-03-11T14:08:37.457Z,97627.66
2023-03-11T14:11:10.495Z,97625.38
2023-03-11T14:13:41.341Z,97622.91
2023-03-11T14:16:10.711Z,97621.19
2023-03-11T14:18:46.535Z,97619.53
2023-03-11T14:21:19.593Z,97622.16
2023-03-11T14:23:54.520Z,97617.16
2023-03-11T14:26:23.925Z,97634.16
2023-03-11T14:28:54.482Z,97631.88
2023-03-11T14:31:40.230Z,97637.34
2023-03-11T14:34:21.667Z,97629.97
2023-03-11T14:36:57.316Z,97611.06
2023-03-11T14:39:27.983Z,97614.25
2023-03-11T14:42:12.477Z,97619.59
2023-03-11T14:47:41.905Z,97620.31
2023-03-11T14:50:16.826Z,97619.69
2023-03-11T14:52:50.930Z,97615.41
2023-03-11T14:55:22.238Z,97611.38
2023-03-11T14:57:55.240Z,97608.34
2023-03-11T15:00:25.871Z,97615.25
2023-03-11T15:03:40.630Z,97618.88
2023-03-11T15:06:12.316Z,97619.00
2023-03-11T15:08:46.481Z,97626.75
2023-03-11T15:11:13.025Z,97625.41
2023-03-11T15:13:44.808Z,97641.06
2023-03-11T15:16:29.595Z,97633.81
2023-03-11T15:18:56.722Z,97636.72
2023-03-11T15:21:24.995Z,97638.00
2023-03-11T15:23:58.725Z,97640.44
2023-03-11T15:26:33.621Z,97635.69
2023-03-11T15:29:05.953Z,97643.44
2023-03-11T15:31:37.069Z,97654.03
2023-03-11T15:34:31.035Z,97655.44
2023-03-11T15:37:01.876Z,97654.84
2023-03-11T15:39:31.045Z,97651.22
2023-03-11T15:41:57.549Z,97656.75
2023-03-11T15:47:04.865Z,97658.47
2023-03-11T15:52:03.290Z,97659.25
2023-03-11T15:54:29.951Z,97671.03
2023-03-11T15:56:58.669Z,97675.19
2023-03-11T15:59:25.812Z,97681.28
2023-03-11T16:01:52.382Z,97675.84
2023-03-11T16:04:20.576Z,97680.34
2023-03-11T16:06:56.688Z,97677.41
2023-03-11T16:09:34.417Z,97677.69
2023-03-11T16:12:02.303Z,97680.84
2023-03-11T16:14:28.854Z,97682.09
2023-03-11T16:16:55.421Z,97677.09
2023-03-11T16:19:21.958Z,97680.38
2023-03-11T16:21:50.631Z,97666.56
2023-03-11T16:24:22.679Z,97671.38
2023-03-11T16:26:52.156Z,97669.81
2023-03-11T16:29:20.007Z,97664.41
2023-03-11T16:31:47.276Z,97673.53
2023-03-11T16:34:13.837Z,97676.69
2023-03-11T16:36:40.920Z,97673.03
2023-03-11T16:39:07.482Z,97676.38
2023-03-11T16:41:42.214Z,97680.78
2023-03-11T16:44:09.856Z,97677.38
2023-03-11T16:46:36.644Z,97683.97
2023-03-11T16:49:03.400Z,97688.69
2023-03-11T16:51:30.058Z,97696.22
2023-03-11T16:53:57.174Z,97697.03
2023-03-11T16:56:23.781Z,97704.72
2023-03-11T16:58:50.392Z,97705.25
2023-03-11T17:01:18.091Z,97699.97
2023-03-11T17:03:48.765Z,97709.19
2023-03-11T17:06:16.704Z,97723.41
2023-03-11T17:08:49.003Z,97718.47
2023-03-11T17:11:21.020Z,97722.41
2023-03-11T17:13:47.728Z,97728.88
2023-03-11T17:16:14.516Z,97731.13
2023-03-11T17:18:41.739Z,97732.88
2023-03-11T17:21:11.325Z,97732.00
2023-03-11T17:23:37.894Z,97736.63
2023-03-11T17:26:12.813Z,97744.75
2023-03-11T17:28:40.301Z,97747.63
2023-03-11T17:31:14.516Z,97754.47
2023-03-11T17:33:41.957Z,97761.78
2023-03-11T17:36:09.665Z,97763.09
2023-03-11T17:38:36.257Z,97765.09
2023-03-11T17:41:10.888Z,97768.13
2023-03-11T17:43:37.528Z,97773.38
2023-03-11T17:46:08.084Z,97779.28
2023-03-11T17:48:34.806Z,97785.56
2023-03-11T17:51:06.364Z,97787.97
2023-03-11T17:53:33.465Z,97794.31
2023-03-11T17:56:00.192Z,97791.22
2023-03-11T17:58:26.815Z,97793.47
2023-03-11T18:00:53.331Z,97794.41
2023-03-11T18:03:19.914Z,97792.13
2023-03-11T18:06:01.082Z,97794.63
2023-03-11T18:08:28.444Z,97798.97
2023-03-11T18:10:59.039Z,97806.34
2023-03-11T18:13:25.870Z,97804.19
2023-03-11T18:16:04.731Z,97814.66
2023-03-11T18:18:33.109Z,97822.78
2023-03-11T18:21:08.433Z,97817.63
2023-03-11T18:26:16.306Z,97826.94
2023-03-11T18:34:00.563Z,97831.53
2023-03-11T18:36:29.879Z,97836.13
2023-03-11T18:38:58.014Z,97837.84
2023-03-11T18:41:26.356Z,97834.91
2023-03-11T18:43:54.412Z,97844.13
2023-03-11T18:46:21.205Z,97839.94
2023-03-11T18:48:47.866Z,97836.06
2023-03-11T18:51:15.403Z,97841.44
2023-03-11T18:53:43.030Z,97851.34
2023-03-11T18:56:13.511Z,97842.06
2023-03-11T18:58:40.117Z,97851.72
2023-03-11T19:01:14.103Z,97848.91
2023-03-11T19:03:42.129Z,97846.28
2023-03-11T19:06:13.477Z,97848.09
2023-03-11T19:08:40.659Z,97846.97
2023-03-11T19:11:08.869Z,97851.69
2023-03-11T19:13:46.305Z,97849.97
2023-03-11T19:16:15.576Z,97849.97
2023-03-11T19:18:42.161Z,97852.09
2023-03-11T19:21:11.514Z,97854.59
2023-03-11T19:23:38.233Z,97854.72
2023-03-11T19:26:05.036Z,97863.94
2023-03-11T19:28:31.564Z,97867.69
2023-03-11T19:31:00.931Z,97862.63
2023-03-11T19:33:27.807Z,97864.88
2023-03-11T19:35:55.264Z,97867.41
2023-03-11T19:38:23.060Z,97871.06
2023-03-11T19:41:07.226Z,97875.25
2023-03-11T19:43:35.833Z,97886.88
2023-03-11T19:46:04.340Z,97885.38
2023-03-11T19:48:31.780Z,97875.06
2023-03-11T19:51:02.394Z,97878.41
2023-03-11T19:53:29.293Z,97880.25
2023-03-11T19:55:56.743Z,97883.91
2023-03-11T19:58:29.474Z,97882.56
2023-03-11T20:00:58.086Z,97892.94
2023-03-11T20:03:24.995Z,97894.19
2023-03-11T20:05:52.739Z,97901.66
2023-03-11T20:08:21.109Z,97903.41
2023-03-11T20:10:51.097Z,97899.72
2023-03-11T20:13:20.432Z,97904.22
2023-03-11T20:15:47.431Z,97907.47
2023-03-11T20:18:14.515Z,97910.31
2023-03-11T20:20:43.311Z,97914.69
2023-03-11T20:23:10.447Z,97920.72
2023-03-11T20:25:41.602Z,97919.53
2023-03-11T20:28:08.402Z,97924.59
2023-03-11T20:30:38.112Z,97924.94
2023-03-11T20:33:04.885Z,97931.38
2023-03-11T20:35:31.472Z,97928.38
2023-03-11T20:37:59.294Z,97932.31
2023-03-11T20:40:26.078Z,97924.13
2023-03-11T20:42:52.702Z,97930.97
2023-03-11T20:45:22.405Z,97927.53
2023-03-11T20:47:53.737Z,97931.00
2023-03-11T20:50:21.781Z,97940.63
2023-03-11T20:55:27.020Z,97940.06
2023-03-11T20:57:54.515Z,97945.00
2023-03-11T21:00:21.541Z,97936.28
2023-03-11T21:02:48.225Z,97944.50
2023-03-11T21:05:14.925Z,97940.25
2023-03-11T21:07:41.677Z,97954.16
2023-03-11T21:10:11.557Z,97946.25
2023-03-11T21:12:38.532Z,97949.72
2023-03-11T21:17:38.983Z,97956.22
2023-03-11T21:20:06.572Z,97958.13
2023-03-11T21:22:33.764Z,97953.06
2023-03-11T21:25:00.478Z,97953.06
2023-03-11T21:27:27.366Z,97959.69
2023-03-11T21:29:55.785Z,97959.72
2023-03-11T21:32:23.283Z,97956.09
2023-03-11T21:34:49.958Z,97956.72
2023-03-11T21:37:17.387Z,97954.78
2023-03-11T21:39:44.018Z,97953.38
2023-03-11T21:42:10.665Z,97961.13
2023-03-11T21:44:37.320Z,97955.59
2023-03-11T21:47:04.453Z,97967.47
2023-03-11T21:49:31.455Z,97963.03
2023-03-11T21:54:35.448Z,97961.78
2023-03-11T21:57:02.188Z,97971.75
2023-03-11T21:59:30.033Z,97963.19
2023-03-11T22:02:01.407Z,97959.41
2023-03-11T22:04:28.972Z,97963.69
2023-03-11T22:06:57.333Z,97965.41
2023-03-11T22:09:25.644Z,97967.94
2023-03-11T22:11:52.304Z,97965.09
2023-03-11T22:14:19.053Z,97959.09
2023-03-11T22:16:45.798Z,97959.88
2023-03-11T22:19:12.578Z,97947.84
2023-03-11T22:21:39.181Z,97960.69
2023-03-11T22:24:06.322Z,97966.06
2023-03-11T22:26:32.929Z,97954.50
2023-03-11T22:28:59.493Z,97952.91
2023-03-11T22:31:26.182Z,97962.06
2023-03-11T22:33:52.740Z,97964.00
2023-03-11T22:36:19.314Z,97967.59
2023-03-11T22:38:46.061Z,97966.97
2023-03-11T22:43:45.514Z,97964.59
2023-03-11T22:48:45.244Z,97971.56
2023-03-11T22:51:11.795Z,97966.31
2023-03-11T22:53:38.643Z,97972.59
2023-03-11T22:56:11.046Z,97966.44
2023-03-11T22:58:37.650Z,97962.28
2023-03-11T23:01:05.250Z,97969.28
2023-03-11T23:03:32.808Z,97968.63
2023-03-11T23:06:00.638Z,97960.56
2023-03-11T23:08:27.550Z,97973.50
2023-03-11T23:10:54.445Z,97970.41
2023-03-11T23:13:21.119Z,97975.81
2023-03-11T23:15:48.230Z,97975.81
2023-03-11T23:18:16.310Z,97979.97
2023-03-11T23:20:43.821Z,97983.00
2023-03-11T23:23:12.286Z,97990.44
2023-03-11T23:25:40.611Z,97992.47
2023-03-11T23:28:07.893Z,97978.25
2023-03-11T23:30:34.858Z,97980.94
2023-03-11T23:33:03.124Z,97983.44
2023-03-11T23:35:30.522Z,97982.66
2023-03-11T23:37:57.273Z,97980.44
2023-03-11T23:40:24.675Z,97987.06
2023-03-11T23:42:51.455Z,97983.56
2023-03-11T23:45:18.209Z,97979.03
2023-03-11T23:47:44.825Z,97973.91
2023-03-11T23:50:11.737Z,97977.88
2023-03-11T23:52:38.300Z,97985.63
2023-03-11T23:55:05.308Z,97987.59
2023-03-11T23:57:34.910Z,97984.88
